createdAt,value
2022-12-26T07:37:08.196Z,9.7
2022-12-26T07:47:10.746Z,9.8
2022-12-26T08:07:15.056Z,9.9
2022-12-26T08:17:17.348Z,10.1
2022-12-26T08:27:19.650Z,10.2
2022-12-26T08:47:24.563Z,10.2
2022-12-26T09:17:31.816Z,10.3
2022-12-26T09:27:33.738Z,10.4
2022-12-26T09:37:36.067Z,10.4
2022-12-26T09:47:38.470Z,10.4
2022-12-26T09:57:40.751Z,10.5
2022-12-26T10:07:43.211Z,10.5
2022-12-26T10:17:45.609Z,10.6
2022-12-26T10:27:48.281Z,10.6
2022-12-26T10:37:50.102Z,10.5
2022-12-26T10:47:51.986Z,10.6
2022-12-26T10:57:54.469Z,10.6
2022-12-26T11:07:56.623Z,10.6
2022-12-26T11:17:59.281Z,10.4
2022-12-26T11:28:00.969Z,10.4
2022-12-26T12:18:12.333Z,10.9
2022-12-26T12:28:14.336Z,10.9
2022-12-26T12:48:18.450Z,9.1
2022-12-26T12:58:20.569Z,8.8
2022-12-26T13:18:25.196Z,8.4
2022-12-26T13:28:26.955Z,8.4
2022-12-26T13:38:29.004Z,8.2
2022-12-26T13:48:31.045Z,8.2
2022-12-26T14:18:36.952Z,7.5
2022-12-26T14:28:38.862Z,7.4
2022-12-26T14:38:40.846Z,7.2
2022-12-26T14:48:43.311Z,7.1
2022-12-26T14:58:45.091Z,7
2022-12-26T15:18:49.758Z,6.7
2022-12-26T15:28:51.615Z,6.7
2022-12-26T15:38:53.447Z,6.6
2022-12-26T15:48:55.744Z,6.5
2022-12-26T16:39:05.392Z,5.7
2022-12-26T17:09:12.188Z,5.6
2022-12-26T18:19:26.907Z,4.9
2022-12-26T18:39:31.331Z,4.8
2022-12-26T19:09:38.378Z,4.3
2022-12-26T19:29:42.687Z,4.1
2022-12-26T19:59:49.754Z,3.9
2022-12-26T20:09:52.097Z,3.9
2022-12-26T20:19:54.330Z,3.9
2022-12-26T20:29:56.617Z,3.8
2022-12-26T20:39:59.070Z,3.8
2022-12-26T20:50:01.587Z,3.7
2022-12-26T21:00:03.448Z,3.7
2022-12-26T21:30:09.987Z,3.6
2022-12-26T21:40:12.578Z,3.8
2022-12-26T22:10:18.328Z,3.9
2022-12-26T22:20:20.738Z,3.8
2022-12-26T22:30:23.085Z,3.7
2022-12-26T22:40:25.188Z,3.6
2022-12-26T22:50:27.438Z,3.6
2022-12-26T23:10:31.074Z,3.8
2022-12-26T23:20:33.003Z,3.9
2022-12-26T23:30:34.754Z,3.8
2022-12-26T23:40:36.765Z,3.9
